createdAt,value
2019-03-12T00:01:46.578Z,3.43
2019-03-12T00:04:13.549Z,3.07
2019-03-12T00:06:40.394Z,3.03
2019-03-12T00:09:07.390Z,3.20
2019-03-12T00:11:34.185Z,1.63
2019-03-12T00:14:01.025Z,1.83
2019-03-12T00:16:27.830Z,2.30
2019-03-12T00:18:54.606Z,3.20
2019-03-12T00:21:21.430Z,1.57
2019-03-12T00:23:48.234Z,3.90
2019-03-12T00:26:15.026Z,2.60
2019-03-12T00:28:41.931Z,1.20
2019-03-12T00:31:08.735Z,1.53
2019-03-12T00:33:35.516Z,2.97
2019-03-12T00:36:02.536Z,3.93
2019-03-12T00:38:29.434Z,2.47
2019-03-12T00:40:56.325Z,3.20
2019-03-12T00:43:23.237Z,2.67
2019-03-12T00:45:50.133Z,3.00
2019-03-12T00:48:17.023Z,1.27
2019-03-12T00:50:43.838Z,3.07
2019-03-12T00:53:10.746Z,1.97
2019-03-12T00:55:37.630Z,3.50
2019-03-12T00:58:04.560Z,1.90
2019-03-12T01:00:31.482Z,1.27
2019-03-12T01:02:58.473Z,5.33
2019-03-12T01:05:25.501Z,2.10
2019-03-12T01:07:52.302Z,3.57
2019-03-12T01:10:19.204Z,2.03
2019-03-12T01:12:46.162Z,1.83
2019-03-12T01:15:13.405Z,3.93
2019-03-12T01:17:40.294Z,2.47
2019-03-12T01:20:08.687Z,1.57
2019-03-12T01:22:35.579Z,3.10
2019-03-12T01:25:02.730Z,3.07
2019-03-12T01:27:29.561Z,1.57
2019-03-12T01:29:56.349Z,2.33
2019-03-12T01:32:23.238Z,3.33
2019-03-12T01:34:50.143Z,2.60
2019-03-12T01:37:16.937Z,3.07
2019-03-12T01:39:43.717Z,4.00
2019-03-12T01:42:10.566Z,2.57
2019-03-12T01:44:37.358Z,4.30
2019-03-12T01:47:04.146Z,3.10
2019-03-12T01:49:30.970Z,3.90
2019-03-12T01:51:57.761Z,5.17
2019-03-12T01:54:24.561Z,4.03
2019-03-12T01:56:51.430Z,5.43
2019-03-12T01:59:18.226Z,7.17
2019-03-12T02:01:45.247Z,4.50
2019-03-12T02:04:12.074Z,2.70
2019-03-12T02:06:38.962Z,4.63
2019-03-12T02:09:07.146Z,6.40
2019-03-12T02:11:33.976Z,7.37
2019-03-12T02:14:00.877Z,4.87
2019-03-12T02:16:27.681Z,3.47
2019-03-12T02:18:54.619Z,7.93
2019-03-12T02:21:21.586Z,5.17
2019-03-12T02:23:48.402Z,3.10
2019-03-12T02:26:15.231Z,2.93
2019-03-12T02:28:42.142Z,5.43
2019-03-12T02:31:09.257Z,5.10
2019-03-12T02:33:36.316Z,4.47
2019-03-12T02:36:03.451Z,2.93
2019-03-12T02:38:30.399Z,4.60
2019-03-12T02:40:57.238Z,7.47
2019-03-12T02:43:24.025Z,3.40
2019-03-12T02:45:50.919Z,3.93
2019-03-12T02:48:17.742Z,4.17
2019-03-12T02:50:44.565Z,4.57
2019-03-12T02:53:11.496Z,3.93
2019-03-12T02:55:38.474Z,4.27
2019-03-12T02:58:05.550Z,7.50
2019-03-12T03:00:32.450Z,6.00
2019-03-12T03:02:59.394Z,5.17
2019-03-12T03:05:26.336Z,5.33
2019-03-12T03:07:55.276Z,8.60
2019-03-12T03:10:22.410Z,4.07
2019-03-12T03:12:49.647Z,4.57
2019-03-12T03:15:24.840Z,6.73
2019-03-12T03:17:51.747Z,9.30
2019-03-12T03:20:18.659Z,5.70
2019-03-12T03:22:45.575Z,5.83
2019-03-12T03:25:12.680Z,5.37
2019-03-12T03:27:39.691Z,4.57
2019-03-12T03:30:10.834Z,4.27
2019-03-12T03:32:37.739Z,6.27
2019-03-12T03:35:04.857Z,5.27
2019-03-12T03:37:31.867Z,5.77
2019-03-12T03:39:58.772Z,4.27
2019-03-12T03:42:25.980Z,5.33
2019-03-12T03:44:52.860Z,4.37
2019-03-12T03:47:20.084Z,6.07
2019-03-12T03:49:47.059Z,6.40
2019-03-12T03:52:13.982Z,5.37
2019-03-12T03:54:40.799Z,5.13
2019-03-12T03:57:07.796Z,5.67
2019-03-12T03:59:34.735Z,4.47
2019-03-12T04:02:01.538Z,5.13
2019-03-12T04:04:28.550Z,2.97
2019-03-12T04:06:55.388Z,5.17
2019-03-12T04:09:22.395Z,5.30
2019-03-12T04:11:49.217Z,4.50
2019-03-12T04:14:16.159Z,4.63
2019-03-12T04:16:43.046Z,2.87
2019-03-12T04:19:09.954Z,4.80
2019-03-12T04:21:36.810Z,5.93
2019-03-12T04:24:03.812Z,6.53
2019-03-12T04:26:30.619Z,5.63
2019-03-12T04:28:57.477Z,5.00
2019-03-12T04:31:24.552Z,9.93
2019-03-12T04:34:21.449Z,3.97
2019-03-12T04:36:49.374Z,6.57
2019-03-12T04:39:16.399Z,4.87
2019-03-12T04:41:43.314Z,4.73
2019-03-12T04:44:10.405Z,4.17
2019-03-12T04:46:37.302Z,3.80
2019-03-12T04:49:04.144Z,6.30
2019-03-12T04:51:31.042Z,2.83
2019-03-12T04:53:57.943Z,5.93
2019-03-12T04:56:24.778Z,4.47
2019-03-12T04:58:51.586Z,5.90
2019-03-12T05:01:18.482Z,7.97
2019-03-12T05:03:45.300Z,7.27
2019-03-12T05:06:12.101Z,13.37
2019-03-12T05:08:38.908Z,7.80
2019-03-12T05:11:05.838Z,8.70
2019-03-12T05:13:32.645Z,6.17
2019-03-12T05:15:59.538Z,6.10
2019-03-12T05:18:26.382Z,7.13
2019-03-12T05:20:53.190Z,7.10
2019-03-12T05:23:20.107Z,7.60
2019-03-12T05:25:47.026Z,6.10
2019-03-12T05:28:13.855Z,5.13
2019-03-12T05:30:40.770Z,11.13
2019-03-12T05:33:07.820Z,9.70
2019-03-12T05:35:34.618Z,7.33
2019-03-12T05:38:01.433Z,7.83
2019-03-12T05:40:28.287Z,10.80
2019-03-12T05:42:55.149Z,8.97
2019-03-12T05:45:22.074Z,6.07
2019-03-12T05:47:48.898Z,10.50
2019-03-12T05:50:15.795Z,6.60
2019-03-12T05:52:42.818Z,10.00
2019-03-12T05:55:10.068Z,9.97
2019-03-12T05:57:37.073Z,9.47
2019-03-12T06:00:04.474Z,9.70
2019-03-12T06:02:31.305Z,8.00
2019-03-12T06:04:58.228Z,6.77
2019-03-12T06:07:25.030Z,10.17
2019-03-12T06:09:51.951Z,8.87
2019-03-12T06:12:18.779Z,10.87
2019-03-12T06:14:45.670Z,10.23
2019-03-12T06:17:12.501Z,8.40
2019-03-12T06:19:39.291Z,8.43
2019-03-12T06:22:06.093Z,11.53
2019-03-12T06:24:32.945Z,14.43
2019-03-12T06:26:59.849Z,11.33
2019-03-12T06:29:26.789Z,8.30
2019-03-12T06:32:10.294Z,12.37
2019-03-12T06:34:44.174Z,7.03
2019-03-12T06:37:39.671Z,14.93
2019-03-12T06:40:19.410Z,10.77
2019-03-12T06:43:05.909Z,9.33
2019-03-12T06:45:39.311Z,9.37
2019-03-12T06:48:38.082Z,11.67
2019-03-12T06:51:14.437Z,11.40
2019-03-12T06:54:09.691Z,10.80
2019-03-12T06:56:43.762Z,8.77
2019-03-12T06:59:26.826Z,10.17
2019-03-12T07:02:12.197Z,11.63
2019-03-12T07:04:55.102Z,11.63
2019-03-12T07:07:44.063Z,9.87
2019-03-12T07:10:28.149Z,9.97
2019-03-12T07:13:13.363Z,10.20
2019-03-12T07:16:02.853Z,7.50
2019-03-12T07:18:47.731Z,9.67
2019-03-12T07:21:46.298Z,10.87
2019-03-12T07:24:23.406Z,7.90
2019-03-12T07:26:57.664Z,12.60
2019-03-12T07:29:32.664Z,12.53
2019-03-12T07:32:27.968Z,10.00
2019-03-12T07:35:08.721Z,15.03
2019-03-12T07:37:55.209Z,8.73
2019-03-12T07:40:54.125Z,6.80
2019-03-12T07:43:49.530Z,7.63
2019-03-12T07:46:31.419Z,9.33
2019-03-12T07:49:05.656Z,11.00
2019-03-12T07:52:01.254Z,12.17
2019-03-12T07:54:46.352Z,9.47
2019-03-12T07:57:19.682Z,11.07
2019-03-12T08:00:21.274Z,7.13
2019-03-12T08:02:56.165Z,8.97
2019-03-12T08:05:35.313Z,13.97
2019-03-12T08:08:21.775Z,10.27
2019-03-12T08:11:11.390Z,10.00
2019-03-12T08:13:56.294Z,10.57
2019-03-12T08:16:31.545Z,10.63
2019-03-12T08:19:16.705Z,9.87
2019-03-12T08:21:54.135Z,15.00
2019-03-12T08:24:55.774Z,9.60
2019-03-12T08:28:01.017Z,8.13
2019-03-12T08:30:32.932Z,8.87
2019-03-12T08:33:49.592Z,9.93
2019-03-12T08:36:25.702Z,8.73
2019-03-12T08:39:11.008Z,8.20
2019-03-12T08:41:49.568Z,7.43
2019-03-12T08:44:37.504Z,8.73
2019-03-12T08:47:12.127Z,9.57
2019-03-12T08:49:55.288Z,6.30
2019-03-12T08:52:29.464Z,5.63
2019-03-12T08:55:11.390Z,6.83
2019-03-12T08:57:46.296Z,8.93
2019-03-12T09:00:50.977Z,9.43
2019-03-12T09:03:40.482Z,11.00
2019-03-12T09:06:14.839Z,10.57
2019-03-12T09:08:51.054Z,8.10
2019-03-12T09:11:40.269Z,7.60
2019-03-12T09:14:26.741Z,6.27
2019-03-12T09:17:13.254Z,12.30
2019-03-12T09:20:00.417Z,8.77
2019-03-12T09:22:50.018Z,6.40
2019-03-12T09:25:34.871Z,7.97
2019-03-12T09:28:36.721Z,7.33
2019-03-12T09:31:29.470Z,5.20
2019-03-12T09:34:21.219Z,9.17
2019-03-12T09:37:06.410Z,6.10
2019-03-12T09:39:42.617Z,7.07
2019-03-12T09:42:29.288Z,5.53
2019-03-12T09:45:12.339Z,9.07
2019-03-12T09:47:54.997Z,6.40
2019-03-12T09:50:29.259Z,8.30
2019-03-12T09:53:18.862Z,4.87
2019-03-12T09:55:56.726Z,9.30
2019-03-12T09:58:33.056Z,10.33
2019-03-12T10:01:25.045Z,7.07
2019-03-12T10:04:11.556Z,7.97
2019-03-12T10:06:48.703Z,5.83
2019-03-12T10:09:37.937Z,6.07
2019-03-12T10:12:10.525Z,3.20
2019-03-12T10:15:03.455Z,6.03
2019-03-12T10:17:53.074Z,5.63
2019-03-12T10:20:38.009Z,6.87
2019-03-12T10:23:14.166Z,7.37
2019-03-12T10:25:55.940Z,6.10
2019-03-12T10:28:45.498Z,7.50
2019-03-12T10:31:35.055Z,10.63
2019-03-12T10:34:28.849Z,7.37
2019-03-12T10:37:12.315Z,6.73
2019-03-12T10:40:03.376Z,8.40
2019-03-12T10:42:35.089Z,11.13
2019-03-12T10:45:17.653Z,9.80
2019-03-12T10:47:44.878Z,3.90
2019-03-12T10:50:11.909Z,4.47
2019-03-12T10:52:38.837Z,4.23
2019-03-12T10:55:13.165Z,3.33
2019-03-12T10:57:35.382Z,5.43
2019-03-12T11:00:03.390Z,5.27
2019-03-12T11:02:30.194Z,6.37
2019-03-12T11:04:57.089Z,4.57
2019-03-12T11:07:24.042Z,6.50
2019-03-12T11:09:51.063Z,7.23
2019-03-12T11:12:17.966Z,4.10
2019-03-12T11:14:44.918Z,6.10
2019-03-12T11:17:11.790Z,5.23
2019-03-12T11:19:38.596Z,6.53
2019-03-12T11:22:05.570Z,8.87
2019-03-12T11:24:32.366Z,5.60
2019-03-12T11:26:59.162Z,6.37
2019-03-12T11:29:26.002Z,5.70
2019-03-12T11:31:52.932Z,5.37
2019-03-12T11:34:19.816Z,5.80
2019-03-12T11:36:46.763Z,3.97
2019-03-12T11:39:13.969Z,3.33
2019-03-12T11:41:40.855Z,5.10
2019-03-12T11:44:07.836Z,9.50
2019-03-12T11:46:43.486Z,6.17
2019-03-12T11:49:04.096Z,7.10
2019-03-12T11:51:31.296Z,3.63
2019-03-12T11:53:58.203Z,4.10
2019-03-12T11:56:25.102Z,5.00
2019-03-12T11:58:52.051Z,5.27
2019-03-12T12:01:19.070Z,5.03
2019-03-12T12:03:45.974Z,4.30
2019-03-12T12:06:12.926Z,3.93
2019-03-12T12:08:39.909Z,6.30
2019-03-12T12:11:06.869Z,5.13
2019-03-12T12:13:33.917Z,6.43
2019-03-12T12:16:00.941Z,5.63
2019-03-12T12:18:27.951Z,4.93
2019-03-12T12:20:55.021Z,6.50
2019-03-12T12:23:21.998Z,6.67
2019-03-12T12:25:49.106Z,8.47
2019-03-12T12:28:16.150Z,7.67
2019-03-12T12:30:43.069Z,9.30
2019-03-12T12:33:10.097Z,6.37
2019-03-12T12:35:37.031Z,6.00
2019-03-12T12:38:04.053Z,4.03
2019-03-12T12:40:31.049Z,11.43
2019-03-12T12:42:57.978Z,4.23
2019-03-12T12:45:24.995Z,5.23
2019-03-12T12:47:51.914Z,9.53
2019-03-12T12:50:19.149Z,12.23
2019-03-12T12:52:46.154Z,9.40
2019-03-12T12:55:13.347Z,6.90
2019-03-12T12:57:40.378Z,10.53
2019-03-12T13:00:11.059Z,8.30
2019-03-12T13:02:37.954Z,8.60
2019-03-12T13:05:05.010Z,8.73
2019-03-12T13:07:31.834Z,10.97
2019-03-12T13:09:58.715Z,7.73
2019-03-12T13:12:25.594Z,11.57
2019-03-12T13:14:52.421Z,10.93
2019-03-12T13:17:19.297Z,9.20
2019-03-12T13:19:46.156Z,13.63
2019-03-12T13:22:13.232Z,9.73
2019-03-12T13:24:40.021Z,12.30
2019-03-12T13:27:06.871Z,12.30
2019-03-12T13:29:33.753Z,8.10
2019-03-12T13:32:12.877Z,7.20
2019-03-12T13:34:31.018Z,9.60
2019-03-12T13:36:57.831Z,16.17
2019-03-12T13:39:24.729Z,13.27
2019-03-12T13:41:51.566Z,13.27
2019-03-12T13:44:18.384Z,13.20
2019-03-12T13:46:45.219Z,13.87
2019-03-12T13:49:12.146Z,14.47
2019-03-12T13:51:39.155Z,15.07
2019-03-12T13:54:09.403Z,21.00
2019-03-12T13:56:34.812Z,17.97
2019-03-12T13:59:01.848Z,13.97
2019-03-12T14:01:28.663Z,18.53
2019-03-12T14:03:55.689Z,12.87
2019-03-12T14:06:22.485Z,20.97
2019-03-12T14:08:49.418Z,16.30
2019-03-12T14:11:16.383Z,14.37
2019-03-12T14:13:43.181Z,19.23
2019-03-12T14:16:10.090Z,16.47
2019-03-12T14:18:36.925Z,20.57
2019-03-12T14:21:07.313Z,26.43
2019-03-12T14:23:37.027Z,19.07
2019-03-12T14:26:04.190Z,20.80
2019-03-12T14:28:31.207Z,19.80
2019-03-12T14:30:58.111Z,18.77
2019-03-12T14:33:25.142Z,16.60
2019-03-12T14:35:52.526Z,18.57
2019-03-12T14:38:19.564Z,22.90
2019-03-12T14:40:46.628Z,18.07
2019-03-12T14:43:13.765Z,19.00
2019-03-12T14:45:46.042Z,21.83
2019-03-12T14:48:57.310Z,19.57
2019-03-12T14:51:45.216Z,13.33
2019-03-12T14:54:12.258Z,17.17
2019-03-12T14:56:39.674Z,20.33
2019-03-12T14:59:06.673Z,17.53
2019-03-12T15:01:33.711Z,14.87
2019-03-12T15:04:00.739Z,17.17
2019-03-12T15:06:27.721Z,14.57
2019-03-12T15:08:54.551Z,14.80
2019-03-12T15:11:21.482Z,15.63
2019-03-12T15:13:48.517Z,15.77
2019-03-12T15:16:15.469Z,14.47
2019-03-12T15:18:43.182Z,16.83
2019-03-12T15:21:10.123Z,11.53
2019-03-12T15:23:36.979Z,16.30
2019-03-12T15:26:04.005Z,17.70
2019-03-12T15:28:30.861Z,12.70
2019-03-12T15:30:57.900Z,16.53
2019-03-12T15:33:24.700Z,19.63
2019-03-12T15:35:51.612Z,11.37
2019-03-12T15:38:18.534Z,15.73
2019-03-12T15:40:45.449Z,14.80
2019-03-12T15:43:12.454Z,13.73
2019-03-12T15:45:39.411Z,17.10
2019-03-12T15:48:06.321Z,17.67
2019-03-12T15:50:34.709Z,21.03
2019-03-12T15:53:01.886Z,18.13
2019-03-12T15:55:28.719Z,16.33
2019-03-12T15:57:55.669Z,13.83
2019-03-12T16:00:22.785Z,14.00
2019-03-12T16:02:49.725Z,13.33
2019-03-12T16:05:16.742Z,17.63
2019-03-12T16:07:43.597Z,21.37
2019-03-12T16:10:10.505Z,17.67
2019-03-12T16:12:37.563Z,18.70
2019-03-12T16:15:05.720Z,18.40
2019-03-12T16:17:32.517Z,21.77
2019-03-12T16:19:59.326Z,18.53
2019-03-12T16:22:26.503Z,21.57
2019-03-12T16:24:53.582Z,18.70
2019-03-12T16:27:20.481Z,11.87
2019-03-12T16:29:47.528Z,18.77
2019-03-12T16:32:14.362Z,20.10
2019-03-12T16:34:41.328Z,14.10
2019-03-12T16:37:08.440Z,17.63
2019-03-12T16:39:36.107Z,21.30
2019-03-12T16:42:03.128Z,14.77
2019-03-12T16:44:30.054Z,18.73
2019-03-12T16:46:56.891Z,16.50
2019-03-12T16:49:23.726Z,13.80
2019-03-12T16:51:50.597Z,13.33
2019-03-12T16:54:17.538Z,13.40
2019-03-12T16:56:45.683Z,15.00
2019-03-12T16:59:12.806Z,15.93
2019-03-12T17:01:39.746Z,14.83
2019-03-12T17:04:06.663Z,17.33
2019-03-12T17:06:33.726Z,18.83
2019-03-12T17:09:00.647Z,13.57
2019-03-12T17:11:27.462Z,14.07
2019-03-12T17:13:54.306Z,15.63
2019-03-12T17:16:21.308Z,21.07
2019-03-12T17:18:48.223Z,21.80
2019-03-12T17:21:15.262Z,15.37
2019-03-12T17:23:42.080Z,14.77
2019-03-12T17:26:09.002Z,14.53
2019-03-12T17:28:35.958Z,17.23
2019-03-12T17:31:03.079Z,11.87
2019-03-12T17:33:29.918Z,12.20
2019-03-12T17:35:56.750Z,12.73
2019-03-12T17:38:23.547Z,13.03
2019-03-12T17:40:50.447Z,15.00
2019-03-12T17:43:17.347Z,17.90
2019-03-12T17:45:46.818Z,13.40
2019-03-12T17:48:13.684Z,15.40
2019-03-12T17:50:40.734Z,16.57
2019-03-12T17:53:07.666Z,11.40
2019-03-12T17:55:34.469Z,15.73
2019-03-12T17:58:01.467Z,18.27
2019-03-12T18:00:29.303Z,15.47
2019-03-12T18:02:56.474Z,11.37
2019-03-12T18:05:23.471Z,18.03
2019-03-12T18:07:50.380Z,15.33
2019-03-12T18:10:17.410Z,14.57
2019-03-12T18:12:44.351Z,14.00
2019-03-12T18:15:13.039Z,15.27
2019-03-12T18:17:40.068Z,12.87
2019-03-12T18:20:09.329Z,17.20
2019-03-12T18:22:38.762Z,17.80
2019-03-12T18:25:08.109Z,15.73
2019-03-12T18:27:35.191Z,16.37
2019-03-12T18:30:02.178Z,17.77
2019-03-12T18:32:29.089Z,16.40
2019-03-12T18:34:55.970Z,15.73
2019-03-12T18:37:22.858Z,15.77
2019-03-12T18:39:49.658Z,17.37
2019-03-12T18:42:16.492Z,19.77
2019-03-12T18:44:43.273Z,13.17
2019-03-12T18:47:10.083Z,10.47
2019-03-12T18:49:37.050Z,16.00
2019-03-12T18:52:03.979Z,8.77
2019-03-12T18:54:30.909Z,16.87
2019-03-12T18:56:57.745Z,13.17
2019-03-12T18:59:24.547Z,19.83
2019-03-12T19:01:51.341Z,11.30
2019-03-12T19:04:18.197Z,14.80
2019-03-12T19:06:45.114Z,9.10
2019-03-12T19:09:12.098Z,11.57
2019-03-12T19:11:39.042Z,13.13
2019-03-12T19:14:05.941Z,11.40
2019-03-12T19:16:32.841Z,13.80
2019-03-12T19:18:59.780Z,14.27
2019-03-12T19:21:26.577Z,13.70
2019-03-12T19:23:53.495Z,12.80
2019-03-12T19:26:20.468Z,10.87
2019-03-12T19:28:47.554Z,13.23
2019-03-12T19:31:24.982Z,12.80
2019-03-12T19:33:53.305Z,10.90
2019-03-12T19:36:20.820Z,12.83
2019-03-12T19:38:47.702Z,14.13
2019-03-12T19:41:14.502Z,14.50
2019-03-12T19:43:41.854Z,18.13
2019-03-12T19:46:08.883Z,12.73
2019-03-12T19:48:35.791Z,10.87
2019-03-12T19:51:02.806Z,10.80
2019-03-12T19:53:30.197Z,13.10
2019-03-12T19:55:57.511Z,12.87
2019-03-12T19:58:24.500Z,11.77
2019-03-12T20:00:52.554Z,14.57
2019-03-12T20:03:19.571Z,7.67
2019-03-12T20:05:46.480Z,11.07
2019-03-12T20:08:13.932Z,12.97
2019-03-12T20:11:19.021Z,9.77
2019-03-12T20:14:34.170Z,10.20
2019-03-12T20:17:43.022Z,6.77
2019-03-12T20:20:53.963Z,9.60
2019-03-12T20:24:04.810Z,13.03
2019-03-12T20:27:15.629Z,11.33
2019-03-12T20:30:32.466Z,14.30
2019-03-12T20:33:36.371Z,9.13
2019-03-12T20:36:40.016Z,7.70
2019-03-12T20:39:47.031Z,7.33
2019-03-12T20:42:44.554Z,11.23
2019-03-12T20:45:52.169Z,10.43
2019-03-12T20:48:41.927Z,8.83
2019-03-12T20:51:45.946Z,10.90
2019-03-12T20:54:32.342Z,9.33
2019-03-12T20:57:59.806Z,11.50
2019-03-12T21:01:09.594Z,11.53
2019-03-12T21:04:17.060Z,11.67
2019-03-12T21:07:24.760Z,12.87
2019-03-12T21:10:24.063Z,17.73
2019-03-12T21:13:42.275Z,13.10
2019-03-12T21:16:46.176Z,13.30
2019-03-12T21:20:10.794Z,14.93
2019-03-12T21:23:11.190Z,9.47
2019-03-12T21:26:17.637Z,16.93
2019-03-12T21:29:28.824Z,15.40
2019-03-12T21:31:55.854Z,15.40
2019-03-12T21:34:22.780Z,15.20
2019-03-12T21:36:49.743Z,14.33
2019-03-12T21:39:16.754Z,12.77
2019-03-12T21:41:43.935Z,15.33
2019-03-12T21:44:11.285Z,13.40
2019-03-12T21:46:38.302Z,19.07
2019-03-12T21:49:05.303Z,19.33
2019-03-12T21:51:32.257Z,12.70
2019-03-12T21:53:59.081Z,12.53
2019-03-12T21:56:45.564Z,14.50
2019-03-12T21:59:12.578Z,15.97
2019-03-12T22:01:39.504Z,14.27
2019-03-12T22:04:06.712Z,11.57
2019-03-12T22:06:33.762Z,13.43
2019-03-12T22:09:00.792Z,18.07
2019-03-12T22:11:27.645Z,15.20
2019-03-12T22:13:54.563Z,15.83
2019-03-12T22:16:21.499Z,11.23
2019-03-12T22:18:48.371Z,14.80
2019-03-12T22:21:17.095Z,14.07
2019-03-12T22:23:46.699Z,15.73
2019-03-12T22:26:13.566Z,9.83
2019-03-12T22:28:40.773Z,9.03
2019-03-12T22:31:07.813Z,12.37
2019-03-12T22:33:34.782Z,13.00
2019-03-12T22:36:01.599Z,14.57
2019-03-12T22:38:28.672Z,12.80
2019-03-12T22:40:55.642Z,15.63
2019-03-12T22:43:22.481Z,12.20
2019-03-12T22:45:49.410Z,15.17
2019-03-12T22:48:16.278Z,12.03
2019-03-12T22:50:43.122Z,10.47
2019-03-12T22:53:09.963Z,13.70
2019-03-12T22:55:36.815Z,15.17
2019-03-12T22:58:03.759Z,14.03
2019-03-12T23:00:37.598Z,11.50
2019-03-12T23:03:05.185Z,13.63
2019-03-12T23:05:32.022Z,18.50
2019-03-12T23:07:59.031Z,10.80
2019-03-12T23:10:26.411Z,10.97
2019-03-12T23:12:53.430Z,12.63
2019-03-12T23:15:20.349Z,13.40
2019-03-12T23:17:47.390Z,12.80
2019-03-12T23:20:15.066Z,10.73
2019-03-12T23:22:42.001Z,12.40
2019-03-12T23:25:09.175Z,14.70
2019-03-12T23:27:36.221Z,12.97
2019-03-12T23:30:04.476Z,10.30
2019-03-12T23:32:31.462Z,10.70
2019-03-12T23:34:58.462Z,8.83
2019-03-12T23:37:25.385Z,12.47
2019-03-12T23:39:52.319Z,11.97
2019-03-12T23:42:19.618Z,11.63
2019-03-12T23:44:46.621Z,12.10
2019-03-12T23:47:13.682Z,9.53
2019-03-12T23:49:40.712Z,7.67
2019-03-12T23:52:07.729Z,8.33
2019-03-12T23:54:34.706Z,11.43
2019-03-12T23:57:01.735Z,11.03
2019-03-12T23:59:28.555Z,8.63
